Riverside — WDC2627 — position and weather

sailwx.info

Track history (hours):
 
Tides and Currents Weather Stations Pressure Air Temp Water Temp Dewpoint Dewpoint Depression Visibility Wind Speed Wind Dir Waves Ship Positions

Riverside

Owner: Kirby Inland Marine, LP, Houston, TX. More information available from US FCC via Universal Licensing System and Coast Guard Vessel Documentation Center.

Last reported at 2018-Feb-21 07:20 UTC. Time now 2018-Feb-21 09:13 UTC.
Position N 29°26' W 094°43'.

Length 203 m; draft 2.6 m.

Type: . MMSI: 366995750.

Date/timePositionNaut miles runAvg speedWind from/ knotsBaromVisibWave heightAir tempDewpointWater temp
2018-Feb-21 07:20N 29°26' W 094°43'0 0.0
2018-Feb-21 06:24N 29°26' W 094°43'0 0.0
2018-Feb-21 06:01N 29°26' W 094°43'0 0.0
2018-Feb-21 05:29N 29°26' W 094°43'0 0.0
2018-Feb-21 04:52N 29°26' W 094°43'0 0.0
2018-Feb-21 03:57N 29°26' W 094°43'0 0.0
2018-Feb-21 03:12N 29°26' W 094°43'0 0.0
2018-Feb-21 02:46N 29°26' W 094°43'0 0.0
2018-Feb-21 02:30N 29°26' W 094°43'0 0.0
2018-Feb-21 01:52N 29°26' W 094°43'0 0.0
2018-Feb-21 01:22N 29°26' W 094°43'0 0.0
2018-Feb-20 17:12N 29°26' W 094°43'0 0.0
2018-Feb-20 16:51N 29°26' W 094°43'0 0.0
2018-Feb-20 13:48N 29°26' W 094°43'0 0.0
2018-Feb-20 13:29N 29°26' W 094°43'0 0.0
2018-Feb-20 13:00N 29°26' W 094°43'0 0.0
2018-Feb-20 12:24N 29°26' W 094°43'0 0.0
2018-Feb-20 11:48N 29°26' W 094°43'0 0.0
2018-Feb-20 11:29N 29°26' W 094°43'0 0.0
2018-Feb-20 10:52N 29°26' W 094°43'0 0.0
2018-Feb-20 10:28N 29°26' W 094°43'0 0.0
2018-Feb-20 09:56N 29°26' W 094°43'0 0.0
2018-Feb-20 09:31N 29°26' W 094°43'0 0.0
2018-Feb-20 08:12N 29°26' W 094°43'0 0.0
2018-Feb-20 07:34N 29°26' W 094°43'0 0.1
2018-Feb-20 07:31N 29°26' W 094°43'0 0.0
2018-Feb-20 06:59N 29°26' W 094°43'0 0.0
2018-Feb-20 06:21N 29°26' W 094°43'0 0.0
2018-Feb-20 04:09N 29°26' W 094°43'4 0.5
2018-Feb-19 19:47N 29°23' W 094°46'0 0.0
2018-Feb-19 17:30N 29°23' W 094°46'0 0.1
2018-Feb-19 16:47N 29°23' W 094°46'0 1.4
2018-Feb-19 16:28N 29°23' W 094°47'2 2.8
2018-Feb-19 15:52N 29°23' W 094°49'7 6.3
2018-Feb-19 14:47N 29°29' W 094°52'2 6.2
2018-Feb-19 14:30N 29°30' W 094°53'3 5.8
2018-Feb-19 14:01N 29°33' W 094°55'3 6.6
2018-Feb-19 13:30N 29°36' W 094°57'3 6.0
2018-Feb-19 13:00N 29°38' W 094°58'3 6.3
2018-Feb-19 12:30N 29°41' W 094°59'3 5.4
2018-Feb-19 11:59N 29°43' W 095°01'4 5.2
2018-Feb-19 11:12N 29°46' W 095°05'2 6.5
2018-Feb-19 10:55N 29°44' W 095°07'3 5.0
2018-Feb-19 10:23N 29°45' W 095°10'0 0.6
2018-Feb-19 09:59N 29°44' W 095°10'0 0.0
2018-Feb-19 09:30N 29°44' W 095°10'0 0.0
2018-Feb-19 08:59N 29°44' W 095°10'0 0.0
2018-Feb-19 08:30N 29°44' W 095°10'0 0.0
2018-Feb-19 08:01N 29°44' W 095°10'0 0.0
2018-Feb-19 07:31N 29°44' W 095°10'0 0.0
2018-Feb-19 07:00N 29°44' W 095°10'0 0.0
2018-Feb-19 06:30N 29°44' W 095°10'0 0.0
2018-Feb-19 06:00N 29°44' W 095°10'0 0.0
2018-Feb-19 05:30N 29°44' W 095°10'0 0.0
2018-Feb-19 05:00N 29°44' W 095°10'0 0.0
2018-Feb-18 03:19N 29°45' W 095°10'0 0.1
2018-Feb-18 02:09N 29°45' W 095°10'3 2.6
2018-Feb-18 00:58N 29°45' W 095°06'5 3.9
2018-Feb-17 23:44N 29°43' W 095°01'1 5.4
2018-Feb-17 23:30N 29°42' W 095°00'3 6.2
2018-Feb-17 23:00N 29°40' W 094°58'3 6.8
2018-Feb-17 22:30N 29°36' W 094°57'3 6.7
2018-Feb-17 22:00N 29°34' W 094°55'3 6.2
2018-Feb-17 21:30N 29°31' W 094°53'10 0.8
2018-Feb-17 08:55N 29°25' W 094°43'0 0.0
2018-Feb-17 08:21N 29°25' W 094°43'0 0.0
2018-Feb-17 08:00N 29°25' W 094°43'0 0.0
2018-Feb-17 07:01N 29°25' W 094°43'0 0.0
2018-Feb-17 06:41N 29°25' W 094°43'0 0.0
2018-Feb-17 06:25N 29°25' W 094°43'0 0.0
2018-Feb-17 05:59N 29°25' W 094°43'0 0.0
2018-Feb-17 05:30N 29°25' W 094°43'0 0.0
2018-Feb-17 04:59N 29°25' W 094°43'0 0.0
2018-Feb-17 04:30N 29°25' W 094°43'0 0.0
2018-Feb-17 03:58N 29°25' W 094°43'0 0.0
2018-Feb-17 03:28N 29°25' W 094°43'0 0.0
2018-Feb-17 03:00N 29°25' W 094°43'0 0.0
2018-Feb-17 02:25N 29°25' W 094°43'0 0.0
2018-Feb-17 02:00N 29°25' W 094°43'0 0.0
2018-Feb-17 01:25N 29°25' W 094°43'0 0.0
2018-Feb-17 01:00N 29°25' W 094°43'0 0.0
2018-Feb-17 00:27N 29°25' W 094°43'0 0.0
2018-Feb-16 23:57N 29°25' W 094°43'0 0.0
2018-Feb-16 23:29N 29°25' W 094°43'0 0.0
2018-Feb-16 10:08N 29°25' W 094°43'0 0.0
2018-Feb-16 09:54N 29°25' W 094°43'0 0.0
2018-Feb-16 09:18N 29°25' W 094°43'0 0.0
2018-Feb-16 08:49N 29°25' W 094°43'0 0.0
2018-Feb-16 08:30N 29°25' W 094°43'0 0.0
2018-Feb-16 07:59N 29°25' W 094°43'0 0.0
2018-Feb-16 07:30N 29°25' W 094°43'0 0.0
2018-Feb-16 07:00N 29°25' W 094°43'0 0.0
2018-Feb-16 06:26N 29°25' W 094°43'0 0.0
2018-Feb-16 06:00N 29°25' W 094°43'0 0.0
2018-Feb-16 05:30N 29°25' W 094°43'0 0.1
2018-Feb-16 04:59N 29°25' W 094°43'0 0.1
2018-Feb-16 04:28N 29°25' W 094°43'0 0.0
2018-Feb-16 03:46N 29°25' W 094°43'0 0.0
2018-Feb-16 02:35N 29°25' W 094°43'0 0.0
2018-Feb-16 02:30N 29°25' W 094°43'0 0.0
2018-Feb-16 02:00N 29°25' W 094°43'0 0.0
2018-Feb-16 01:28N 29°25' W 094°43'0 0.0
2018-Feb-16 01:00N 29°25' W 094°43'0 0.0
2018-Feb-16 00:28N 29°25' W 094°43'0 0.0
2018-Feb-15 23:57N 29°25' W 094°43'0 0.0
2018-Feb-15 23:18N 29°25' W 094°43'0 0.0
2018-Feb-15 23:00N 29°25' W 094°43'0 0.0
2018-Feb-15 22:20N 29°25' W 094°43'0 0.0
2018-Feb-15 21:59N 29°25' W 094°43'0 0.0
2018-Feb-15 21:00N 29°25' W 094°43'0 0.0
2018-Feb-15 18:13N 29°25' W 094°43'0 0.0
2018-Feb-15 10:26N 29°25' W 094°43'0 0.0
2018-Feb-15 09:48N 29°25' W 094°43'0 0.0
2018-Feb-15 09:22N 29°25' W 094°43'0 0.0
2018-Feb-15 08:52N 29°25' W 094°43'0 0.0
2018-Feb-15 08:29N 29°25' W 094°43'0 0.0
2018-Feb-15 08:00N 29°25' W 094°43'0 0.0
2018-Feb-15 07:30N 29°25' W 094°43'0 0.0
2018-Feb-15 06:49N 29°25' W 094°43'0 0.0
2018-Feb-15 06:24N 29°25' W 094°43'0 0.0
2018-Feb-15 06:00N 29°25' W 094°43'0 0.0
2018-Feb-15 05:30N 29°25' W 094°43'0 0.0
2018-Feb-15 04:50N 29°25' W 094°43'0 0.0
2018-Feb-15 04:28N 29°25' W 094°43'0 0.0
2018-Feb-15 03:59N 29°25' W 094°43'0 0.0
2018-Feb-15 03:26N 29°25' W 094°43'0 0.0
2018-Feb-15 02:59N 29°25' W 094°43'0 0.0
2018-Feb-15 02:29N 29°25' W 094°43'0 0.0
2018-Feb-14 23:19N 29°25' W 094°43'0 0.0
2018-Feb-14 22:56N 29°25' W 094°43'0 0.0
2018-Feb-14 19:40N 29°25' W 094°43'0 1.2
2018-Feb-14 19:20N 29°26' W 094°43'0 0.0
2018-Feb-14 18:59N 29°26' W 094°43'0 0.0
2018-Feb-14 18:29N 29°26' W 094°43'0 0.0
2018-Feb-14 17:59N 29°26' W 094°43'0 0.4
2018-Feb-14 16:59N 29°25' W 094°43'0 0.0
2018-Feb-14 16:27N 29°25' W 094°43'0 0.0
2018-Feb-14 11:46N 29°25' W 094°43'0 0.0
2018-Feb-14 11:23N 29°25' W 094°43'0 0.0
2018-Feb-14 04:15N 29°25' W 094°43'0 0.0
2018-Feb-14 03:58N 29°25' W 094°43'  
Track history (hours):
 
Tides and Currents Weather Stations Pressure Air Temp Water Temp Dewpoint Dewpoint Depression Visibility Wind Speed Wind Dir Waves Ship Positions

Riverside

Owner: Kirby Inland Marine, LP, Houston, TX. More information available from US FCC via Universal Licensing System and Coast Guard Vessel Documentation Center.

Last reported at 2018-Feb-21 07:20 UTC. Time now 2018-Feb-21 09:13 UTC.
Position N 29°26' W 094°43'.

Length 203 m; draft 2.6 m.

Type: . MMSI: 366995750.

Date/timePositionNaut miles runAvg speedWind from/ knotsBaromVisibWave heightAir tempDewpointWater temp
2018-Feb-21 07:20N 29°26' W 094°43'0 0.0
2018-Feb-21 06:24N 29°26' W 094°43'0 0.0
2018-Feb-21 06:01N 29°26' W 094°43'0 0.0
2018-Feb-21 05:29N 29°26' W 094°43'0 0.0
2018-Feb-21 04:52N 29°26' W 094°43'0 0.0
2018-Feb-21 03:57N 29°26' W 094°43'0 0.0
2018-Feb-21 03:12N 29°26' W 094°43'0 0.0
2018-Feb-21 02:46N 29°26' W 094°43'0 0.0
2018-Feb-21 02:30N 29°26' W 094°43'0 0.0
2018-Feb-21 01:52N 29°26' W 094°43'0 0.0
2018-Feb-21 01:22N 29°26' W 094°43'0 0.0
2018-Feb-20 17:12N 29°26' W 094°43'0 0.0
2018-Feb-20 16:51N 29°26' W 094°43'0 0.0
2018-Feb-20 13:48N 29°26' W 094°43'0 0.0
2018-Feb-20 13:29N 29°26' W 094°43'0 0.0
2018-Feb-20 13:00N 29°26' W 094°43'0 0.0
2018-Feb-20 12:24N 29°26' W 094°43'0 0.0
2018-Feb-20 11:48N 29°26' W 094°43'0 0.0
2018-Feb-20 11:29N 29°26' W 094°43'0 0.0
2018-Feb-20 10:52N 29°26' W 094°43'0 0.0
2018-Feb-20 10:28N 29°26' W 094°43'0 0.0
2018-Feb-20 09:56N 29°26' W 094°43'0 0.0
2018-Feb-20 09:31N 29°26' W 094°43'0 0.0
2018-Feb-20 08:12N 29°26' W 094°43'0 0.0
2018-Feb-20 07:34N 29°26' W 094°43'0 0.1
2018-Feb-20 07:31N 29°26' W 094°43'0 0.0
2018-Feb-20 06:59N 29°26' W 094°43'0 0.0
2018-Feb-20 06:21N 29°26' W 094°43'0 0.0
2018-Feb-20 04:09N 29°26' W 094°43'4 0.5
2018-Feb-19 19:47N 29°23' W 094°46'0 0.0
2018-Feb-19 17:30N 29°23' W 094°46'0 0.1
2018-Feb-19 16:47N 29°23' W 094°46'0 1.4
2018-Feb-19 16:28N 29°23' W 094°47'2 2.8
2018-Feb-19 15:52N 29°23' W 094°49'7 6.3
2018-Feb-19 14:47N 29°29' W 094°52'2 6.2
2018-Feb-19 14:30N 29°30' W 094°53'3 5.8
2018-Feb-19 14:01N 29°33' W 094°55'3 6.6
2018-Feb-19 13:30N 29°36' W 094°57'3 6.0
2018-Feb-19 13:00N 29°38' W 094°58'3 6.3
2018-Feb-19 12:30N 29°41' W 094°59'3 5.4
2018-Feb-19 11:59N 29°43' W 095°01'4 5.2
2018-Feb-19 11:12N 29°46' W 095°05'2 6.5
2018-Feb-19 10:55N 29°44' W 095°07'3 5.0
2018-Feb-19 10:23N 29°45' W 095°10'0 0.6
2018-Feb-19 09:59N 29°44' W 095°10'0 0.0
2018-Feb-19 09:30N 29°44' W 095°10'0 0.0
2018-Feb-19 08:59N 29°44' W 095°10'0 0.0
2018-Feb-19 08:30N 29°44' W 095°10'0 0.0
2018-Feb-19 08:01N 29°44' W 095°10'0 0.0
2018-Feb-19 07:31N 29°44' W 095°10'0 0.0
2018-Feb-19 07:00N 29°44' W 095°10'0 0.0
2018-Feb-19 06:30N 29°44' W 095°10'0 0.0
2018-Feb-19 06:00N 29°44' W 095°10'0 0.0
2018-Feb-19 05:30N 29°44' W 095°10'0 0.0
2018-Feb-19 05:00N 29°44' W 095°10'0 0.0
2018-Feb-18 03:19N 29°45' W 095°10'0 0.1
2018-Feb-18 02:09N 29°45' W 095°10'3 2.6
2018-Feb-18 00:58N 29°45' W 095°06'5 3.9
2018-Feb-17 23:44N 29°43' W 095°01'1 5.4
2018-Feb-17 23:30N 29°42' W 095°00'3 6.2
2018-Feb-17 23:00N 29°40' W 094°58'3 6.8
2018-Feb-17 22:30N 29°36' W 094°57'3 6.7
2018-Feb-17 22:00N 29°34' W 094°55'3 6.2
2018-Feb-17 21:30N 29°31' W 094°53'10 0.8
2018-Feb-17 08:55N 29°25' W 094°43'0 0.0
2018-Feb-17 08:21N 29°25' W 094°43'0 0.0
2018-Feb-17 08:00N 29°25' W 094°43'0 0.0
2018-Feb-17 07:01N 29°25' W 094°43'0 0.0
2018-Feb-17 06:41N 29°25' W 094°43'0 0.0
2018-Feb-17 06:25N 29°25' W 094°43'0 0.0
2018-Feb-17 05:59N 29°25' W 094°43'0 0.0
2018-Feb-17 05:30N 29°25' W 094°43'0 0.0
2018-Feb-17 04:59N 29°25' W 094°43'0 0.0
2018-Feb-17 04:30N 29°25' W 094°43'0 0.0
2018-Feb-17 03:58N 29°25' W 094°43'0 0.0
2018-Feb-17 03:28N 29°25' W 094°43'0 0.0
2018-Feb-17 03:00N 29°25' W 094°43'0 0.0
2018-Feb-17 02:25N 29°25' W 094°43'0 0.0
2018-Feb-17 02:00N 29°25' W 094°43'0 0.0
2018-Feb-17 01:25N 29°25' W 094°43'0 0.0
2018-Feb-17 01:00N 29°25' W 094°43'0 0.0
2018-Feb-17 00:27N 29°25' W 094°43'0 0.0
2018-Feb-16 23:57N 29°25' W 094°43'0 0.0
2018-Feb-16 23:29N 29°25' W 094°43'0 0.0
2018-Feb-16 10:08N 29°25' W 094°43'0 0.0
2018-Feb-16 09:54N 29°25' W 094°43'0 0.0
2018-Feb-16 09:18N 29°25' W 094°43'0 0.0
2018-Feb-16 08:49N 29°25' W 094°43'0 0.0
2018-Feb-16 08:30N 29°25' W 094°43'0 0.0
2018-Feb-16 07:59N 29°25' W 094°43'0 0.0
2018-Feb-16 07:30N 29°25' W 094°43'0 0.0
2018-Feb-16 07:00N 29°25' W 094°43'0 0.0
2018-Feb-16 06:26N 29°25' W 094°43'0 0.0
2018-Feb-16 06:00N 29°25' W 094°43'0 0.0
2018-Feb-16 05:30N 29°25' W 094°43'0 0.1
2018-Feb-16 04:59N 29°25' W 094°43'0 0.1
2018-Feb-16 04:28N 29°25' W 094°43'0 0.0
2018-Feb-16 03:46N 29°25' W 094°43'0 0.0
2018-Feb-16 02:35N 29°25' W 094°43'0 0.0
2018-Feb-16 02:30N 29°25' W 094°43'0 0.0
2018-Feb-16 02:00N 29°25' W 094°43'0 0.0
2018-Feb-16 01:28N 29°25' W 094°43'0 0.0
2018-Feb-16 01:00N 29°25' W 094°43'0 0.0
2018-Feb-16 00:28N 29°25' W 094°43'0 0.0
2018-Feb-15 23:57N 29°25' W 094°43'0 0.0
2018-Feb-15 23:18N 29°25' W 094°43'0 0.0
2018-Feb-15 23:00N 29°25' W 094°43'0 0.0
2018-Feb-15 22:20N 29°25' W 094°43'0 0.0
2018-Feb-15 21:59N 29°25' W 094°43'0 0.0
2018-Feb-15 21:00N 29°25' W 094°43'0 0.0
2018-Feb-15 18:13N 29°25' W 094°43'0 0.0
2018-Feb-15 10:26N 29°25' W 094°43'0 0.0
2018-Feb-15 09:48N 29°25' W 094°43'0 0.0
2018-Feb-15 09:22N 29°25' W 094°43'0 0.0
2018-Feb-15 08:52N 29°25' W 094°43'0 0.0
2018-Feb-15 08:29N 29°25' W 094°43'0 0.0
2018-Feb-15 08:00N 29°25' W 094°43'0 0.0
2018-Feb-15 07:30N 29°25' W 094°43'0 0.0
2018-Feb-15 06:49N 29°25' W 094°43'0 0.0
2018-Feb-15 06:24N 29°25' W 094°43'0 0.0
2018-Feb-15 06:00N 29°25' W 094°43'0 0.0
2018-Feb-15 05:30N 29°25' W 094°43'0 0.0
2018-Feb-15 04:50N 29°25' W 094°43'0 0.0
2018-Feb-15 04:28N 29°25' W 094°43'0 0.0
2018-Feb-15 03:59N 29°25' W 094°43'0 0.0
2018-Feb-15 03:26N 29°25' W 094°43'0 0.0
2018-Feb-15 02:59N 29°25' W 094°43'0 0.0
2018-Feb-15 02:29N 29°25' W 094°43'0 0.0
2018-Feb-14 23:19N 29°25' W 094°43'0 0.0
2018-Feb-14 22:56N 29°25' W 094°43'0 0.0
2018-Feb-14 19:40N 29°25' W 094°43'0 1.2
2018-Feb-14 19:20N 29°26' W 094°43'0 0.0
2018-Feb-14 18:59N 29°26' W 094°43'0 0.0
2018-Feb-14 18:29N 29°26' W 094°43'0 0.0
2018-Feb-14 17:59N 29°26' W 094°43'0 0.4
2018-Feb-14 16:59N 29°25' W 094°43'0 0.0
2018-Feb-14 16:27N 29°25' W 094°43'0 0.0
2018-Feb-14 11:46N 29°25' W 094°43'0 0.0
2018-Feb-14 11:23N 29°25' W 094°43'0 0.0
2018-Feb-14 04:15N 29°25' W 094°43'0 0.0
2018-Feb-14 03:58N 29°25' W 094°43'  

Dump ship's entire track history